Time;durP1;ratioP1;P1;durP2;ratioP2;P2;SDS_P1;SDS_P2;PMS_P1;PMS_P2;Temp;Humidity;BMP_temperature;BMP_pressure;BME280_temperature;BME280_humidity;BME280_pressure;Samples;Min_cycle;Max_cycle;Signal;HPM_P1;HPM_P2
2022/08/14 00:01:25;;;;;;;6.70;2.67;;;;;;;;;;5007291;28;20045;-95
2022/08/14 00:03:59;;;;;;;5.43;2.88;;;;;;;;;;5004181;28;20103;-96
2022/08/14 00:06:53;;;;;;;3.80;2.60;;;;;;;;;;5006770;28;20080;-90
2022/08/14 00:09:23;;;;;;;3.63;2.60;;;;;;;;;;5002497;28;20045;-90
2022/08/14 00:11:57;;;;;;;3.90;2.42;;;;;;;;;;5002406;28;20045;-90
2022/08/14 00:14:38;;;;;;;3.70;2.50;;;;;;;;;;5005702;28;20060;-90
2022/08/14 00:17:11;;;;;;;4.65;2.63;;;;;;;;;;5010355;28;20054;-95
2022/08/14 00:20:07;;;;;;;5.32;2.50;;;;;;;;;;5006162;28;20041;-95
2022/08/14 00:22:35;;;;;;;4.78;2.60;;;;;;;;;;4987499;28;20099;-95
2022/08/14 00:25:29;;;;;;;3.83;2.60;;;;;;;;;;5021549;28;20046;-95
2022/08/14 00:28:11;;;;;;;3.85;2.42;;;;;;;;;;4998498;28;20045;-90
2022/08/14 00:31:07;;;;;;;4.45;2.58;;;;;;;;;;5002756;28;20122;-90
2022/08/14 00:33:59;;;;;;;3.50;2.42;;;;;;;;;;4995180;28;20049;-91
2022/08/14 00:36:47;;;;;;;6.13;2.80;;;;;;;;;;4999084;28;20054;-91
2022/08/14 00:39:15;;;;;;;5.50;2.45;;;;;;;;;;4990898;28;20445;-90
2022/08/14 00:41:46;;;;;;;6.55;2.70;;;;;;;;;;5016960;28;20486;-90
2022/08/14 00:44:15;;;;;;;5.32;2.58;;;;;;;;;;5012260;28;20057;-90
2022/08/14 00:47:07;;;;;;;4.15;2.55;;;;;;;;;;5050578;28;20412;-95
2022/08/14 00:49:45;;;;;;;4.57;2.40;;;;;;;;;;5057734;28;20053;-96
2022/08/14 00:52:15;;;;;;;6.55;3.03;;;;;;;;;;5041717;28;20048;-95
2022/08/14 00:54:55;;;;;;;5.03;2.55;;;;;;;;;;5025217;28;20052;-95
2022/08/14 00:57:28;;;;;;;5.15;2.67;;;;;;;;;;5036380;28;20068;-90
2022/08/14 00:59:59;;;;;;;3.80;2.83;;;;;;;;;;5033147;28;20049;-90
2022/08/14 01:02:28;;;;;;;5.88;3.00;;;;;;;;;;5019993;28;20060;-90
2022/08/14 01:05:06;;;;;;;4.47;2.50;;;;;;;;;;5030974;28;20064;-90
2022/08/14 01:07:34;;;;;;;4.40;2.60;;;;;;;;;;5005817;28;20472;-90
2022/08/14 01:10:18;;;;;;;10.07;2.85;;;;;;;;;;5011751;28;20057;-90
2022/08/14 01:12:47;;;;;;;3.97;2.58;;;;;;;;;;5035889;28;20481;-90
2022/08/14 01:15:19;;;;;;;5.70;2.50;;;;;;;;;;5035592;28;20103;-92
2022/08/14 01:21:54;;;;;;;5.03;2.67;;;;;;;;;;5042031;28;19943;-91
2022/08/14 01:25:12;;;;;;;3.97;2.63;;;;;;;;;;5051199;28;20102;-91
2022/08/14 01:27:43;;;;;;;4.22;2.60;;;;;;;;;;5031515;28;20401;-91
2022/08/14 01:30:31;;;;;;;6.50;2.50;;;;;;;;;;5034690;28;20049;-91
2022/08/14 01:33:11;;;;;;;4.70;2.60;;;;;;;;;;5010680;28;20108;-91
2022/08/14 01:35:45;;;;;;;8.43;2.92;;;;;;;;;;5013742;28;20049;-91
2022/08/14 01:38:57;;;;;;;3.92;2.47;;;;;;;;;;5044289;28;20049;-96
2022/08/14 01:41:55;;;;;;;5.68;2.80;;;;;;;;;;5024511;28;20048;-96
2022/08/14 01:44:57;;;;;;;4.25;2.70;;;;;;;;;;5024918;28;20504;-96
2022/08/14 01:47:49;;;;;;;5.57;2.50;;;;;;;;;;5037456;28;20497;-96
2022/08/14 01:50:17;;;;;;;6.18;2.53;;;;;;;;;;5020984;28;20049;-96
2022/08/14 01:52:54;;;;;;;3.45;2.55;;;;;;;;;;5037085;28;20057;-96
2022/08/14 01:55:30;;;;;;;5.60;2.85;;;;;;;;;;5020926;28;20418;-96
2022/08/14 01:58:03;;;;;;;6.20;2.55;;;;;;;;;;5023536;28;20073;-91
2022/08/14 02:00:52;;;;;;;5.85;2.60;;;;;;;;;;5027042;28;20143;-91
2022/08/14 02:03:29;;;;;;;3.97;2.55;;;;;;;;;;5031880;28;20429;-91
2022/08/14 02:06:02;;;;;;;5.28;3.15;;;;;;;;;;5038403;28;20053;-92
2022/08/14 02:09:15;;;;;;;10.27;2.95;;;;;;;;;;5017468;28;20056;-91
2022/08/14 02:11:55;;;;;;;5.07;2.75;;;;;;;;;;5035670;28;20045;-91
2022/08/14 02:14:24;;;;;;;3.78;2.20;;;;;;;;;;5015695;28;20501;-91
2022/08/14 02:16:59;;;;;;;5.63;3.30;;;;;;;;;;5011698;28;20059;-96
2022/08/14 02:19:30;;;;;;;3.75;2.42;;;;;;;;;;5021129;28;20083;-96
2022/08/14 02:22:23;;;;;;;7.07;2.73;;;;;;;;;;5049473;28;20041;-96
2022/08/14 02:25:00;;;;;;;4.53;2.88;;;;;;;;;;5021825;28;20056;-96
2022/08/14 02:27:33;;;;;;;5.85;2.78;;;;;;;;;;5001404;28;20103;-91
2022/08/14 02:30:25;;;;;;;6.90;2.88;;;;;;;;;;5013337;28;20434;-91
2022/08/14 02:33:04;;;;;;;5.03;2.90;;;;;;;;;;5019810;28;20518;-91
2022/08/14 02:35:33;;;;;;;6.63;2.67;;;;;;;;;;5016799;28;20056;-91
2022/08/14 02:38:29;;;;;;;;;;;;;;;;;;5039786;28;20045;-91
2022/08/14 02:41:22;;;;;;;6.53;2.70;;;;;;;;;;5016433;28;19913;-91
2022/08/14 02:44:21;;;;;;;4.30;2.83;;;;;;;;;;5031537;28;20072;-91
2022/08/14 02:46:57;;;;;;;6.40;2.80;;;;;;;;;;5012720;28;20417;-91
2022/08/14 02:49:53;;;;;;;;;;;;;;;;;;5032756;28;20056;-92
2022/08/14 02:52:29;;;;;;;;;;;;;;;;;;5032103;28;19975;-91
2022/08/14 02:55:17;;;;;;;5.40;2.53;;;;;;;;;;5033965;28;20007;-91
2022/08/14 02:57:53;;;;;;;5.20;2.60;;;;;;;;;;5030990;28;20046;-92
2022/08/14 03:00:45;;;;;;;3.88;2.58;;;;;;;;;;4992383;28;20406;-92
2022/08/14 03:03:13;;;;;;;3.70;2.30;;;;;;;;;;5032690;28;20047;-91
2022/08/14 03:05:41;;;;;;;5.05;2.67;;;;;;;;;;5018263;28;20041;-92
2022/08/14 03:08:11;;;;;;;5.88;2.53;;;;;;;;;;5019384;28;20064;-92
2022/08/14 03:10:47;;;;;;;4.53;2.40;;;;;;;;;;5026943;28;20084;-91
2022/08/14 03:13:21;;;;;;;3.35;2.35;;;;;;;;;;5029595;28;20050;-91
2022/08/14 03:15:52;;;;;;;6.18;2.28;;;;;;;;;;5023661;28;20049;-92
2022/08/14 03:18:25;;;;;;;4.28;2.40;;;;;;;;;;5032716;28;20076;-96
2022/08/14 03:21:12;;;;;;;5.25;2.70;;;;;;;;;;5033281;28;20130;-96
2022/08/14 03:23:44;;;;;;;6.22;2.38;;;;;;;;;;5036356;28;20077;-95
2022/08/14 03:26:18;;;;;;;4.45;2.63;;;;;;;;;;5036565;28;20053;-93
2022/08/14 03:29:01;;;;;;;4.28;2.38;;;;;;;;;;5029964;28;20071;-89
2022/08/14 03:31:29;;;;;;;4.97;2.58;;;;;;;;;;5016763;28;20053;-89
2022/08/14 03:33:58;;;;;;;3.97;2.67;;;;;;;;;;5038457;28;20041;-89
2022/08/14 03:36:29;;;;;;;6.30;2.28;;;;;;;;;;5038910;28;20132;-94
2022/08/14 03:39:18;;;;;;;4.53;2.70;;;;;;;;;;5006400;28;20065;-94
2022/08/14 03:41:55;;;;;;;6.50;2.70;;;;;;;;;;5020243;28;20057;-95
2022/08/14 03:44:31;;;;;;;6.47;2.83;;;;;;;;;;5004701;28;20045;-95
2022/08/14 03:47:19;;;;;;;6.20;2.70;;;;;;;;;;5015772;28;20103;-89
2022/08/14 03:49:47;;;;;;;4.70;2.60;;;;;;;;;;5033751;28;20049;-89
2022/08/14 03:52:17;;;;;;;7.25;2.67;;;;;;;;;;5037475;28;20072;-89
2022/08/14 03:55:31;;;;;;;6.50;2.72;;;;;;;;;;5051500;28;20507;-89
2022/08/14 03:58:06;;;;;;;4.32;2.35;;;;;;;;;;5010588;28;20053;-89
2022/08/14 04:00:34;;;;;;;5.35;2.60;;;;;;;;;;5036628;28;20453;-89
2022/08/14 04:03:12;;;;;;;5.07;2.60;;;;;;;;;;5012037;28;20670;-89
2022/08/14 04:05:52;;;;;;;6.15;2.75;;;;;;;;;;5033845;28;20103;-89
2022/08/14 04:08:21;;;;;;;6.72;2.50;;;;;;;;;;5017668;28;20046;-89
2022/08/14 04:10:59;;;;;;;7.28;2.60;;;;;;;;;;5037543;28;20081;-89
2022/08/14 04:13:31;;;;;;;4.88;3.10;;;;;;;;;;5009473;28;20053;-89
2022/08/14 04:16:27;;;;;;;5.75;3.10;;;;;;;;;;5029794;28;20037;-90
2022/08/14 04:19:07;;;;;;;5.10;2.63;;;;;;;;;;5008717;28;20044;-94
2022/08/14 04:22:00;;;;;;;6.22;2.83;;;;;;;;;;5038550;28;20055;-95
2022/08/14 04:24:55;;;;;;;4.50;2.75;;;;;;;;;;5026782;28;20053;-95
2022/08/14 04:27:47;;;;;;;5.70;2.72;;;;;;;;;;5054232;28;20045;-89
2022/08/14 04:30:29;;;;;;;10.48;2.70;;;;;;;;;;5037354;28;20052;-89
2022/08/14 04:32:59;;;;;;;5.13;3.00;;;;;;;;;;5017537;28;20051;-89
2022/08/14 04:36:03;;;;;;;4.85;3.05;;;;;;;;;;5049889;28;20124;-95
2022/08/14 04:44:36;;;;;;;4.63;2.30;;;;;;;;;;5037414;28;20029;-91
2022/08/14 04:50:41;;;;;;;3.47;2.42;;;;;;;;;;5028959;28;20069;-88
2022/08/14 04:53:15;;;;;;;4.65;2.67;;;;;;;;;;5028912;28;20124;-90
2022/08/14 04:55:49;;;;;;;5.38;2.83;;;;;;;;;;5033851;28;20485;-88
2022/08/14 04:58:30;;;;;;;5.60;2.50;;;;;;;;;;5014866;28;20065;-88
2022/08/14 05:01:06;;;;;;;6.38;3.40;;;;;;;;;;5017353;28;20046;-87
2022/08/14 05:03:48;;;;;;;4.50;2.58;;;;;;;;;;4999181;28;20054;-87
2022/08/14 05:06:20;;;;;;;6.30;2.70;;;;;;;;;;5031948;28;20080;-94
2022/08/14 05:09:31;;;;;;;3.60;2.42;;;;;;;;;;5045752;28;20120;-89
2022/08/14 05:12:25;;;;;;;6.35;2.60;;;;;;;;;;5041210;28;20041;-91
2022/08/14 05:15:20;;;;;;;6.85;2.58;;;;;;;;;;5047029;28;20550;-89
2022/08/14 05:18:17;;;;;;;6.88;2.80;;;;;;;;;;5041478;28;20489;-92
2022/08/14 05:21:10;;;;;;;;;;;;;;;;;;5038091;28;20049;-92
2022/08/14 05:24:03;;;;;;;10.10;2.78;;;;;;;;;;5024279;28;19927;-92
2022/08/14 05:26:40;;;;;;;4.32;2.50;;;;;;;;;;5038909;28;20193;-92
2022/08/14 05:29:18;;;;;;;6.32;2.72;;;;;;;;;;5055028;28;20083;-92
2022/08/14 05:31:45;;;;;;;6.25;2.88;;;;;;;;;;5037629;28;20136;-92
2022/08/14 05:34:13;;;;;;;3.88;2.50;;;;;;;;;;5037766;28;20091;-92
2022/08/14 05:36:43;;;;;;;6.25;2.90;;;;;;;;;;5036191;28;20404;-87
2022/08/14 05:39:33;;;;;;;3.80;2.50;;;;;;;;;;5035851;28;20048;-87
2022/08/14 05:42:33;;;;;;;5.85;2.72;;;;;;;;;;5051872;28;20134;-87
2022/08/14 05:45:19;;;;;;;4.25;2.75;;;;;;;;;;5034251;28;20040;-87
2022/08/14 05:47:51;;;;;;;5.82;2.63;;;;;;;;;;5018313;28;20128;-92
2022/08/14 05:50:19;;;;;;;7.43;2.60;;;;;;;;;;5053532;28;20170;-92
2022/08/14 05:52:49;;;;;;;3.63;2.50;;;;;;;;;;5036998;28;20099;-91
2022/08/14 05:55:17;;;;;;;5.18;2.42;;;;;;;;;;5020885;28;20049;-91
2022/08/14 05:58:01;;;;;;;7.13;2.53;;;;;;;;;;5036402;28;20053;-92
2022/08/14 06:00:45;;;;;;;9.48;2.70;;;;;;;;;;5035792;28;20144;-92
2022/08/14 06:03:15;;;;;;;7.22;2.75;;;;;;;;;;5054346;28;20049;-92
2022/08/14 06:05:44;;;;;;;8.00;2.38;;;;;;;;;;5021259;28;20379;-92
2022/08/14 06:08:19;;;;;;;7.97;2.72;;;;;;;;;;5019325;28;20050;-91
2022/08/14 06:11:31;;;;;;;7.57;2.63;;;;;;;;;;5023369;28;20054;-92
2022/08/14 06:13:59;;;;;;;7.00;2.75;;;;;;;;;;5017054;28;20049;-90
2022/08/14 06:16:27;;;;;;;5.35;2.67;;;;;;;;;;5031492;28;20045;-93
2022/08/14 06:18:55;;;;;;;5.63;2.63;;;;;;;;;;5000775;28;20091;-86
2022/08/14 06:21:27;;;;;;;6.30;2.78;;;;;;;;;;5031913;28;20053;-87
2022/08/14 06:23:57;;;;;;;4.80;2.50;;;;;;;;;;5013238;28;20045;-87
2022/08/14 06:26:31;;;;;;;5.50;2.50;;;;;;;;;;5039580;28;20052;-87
2022/08/14 06:29:09;;;;;;;6.80;2.60;;;;;;;;;;5036044;28;20103;-91
2022/08/14 06:31:48;;;;;;;6.50;2.92;;;;;;;;;;5020612;28;20064;-92
2022/08/14 06:34:58;;;;;;;6.03;2.60;;;;;;;;;;5036960;28;20132;-91
2022/08/14 06:37:46;;;;;;;5.43;2.65;;;;;;;;;;5033635;28;20052;-87
2022/08/14 06:40:21;;;;;;;7.05;2.70;;;;;;;;;;5033344;28;20057;-87
2022/08/14 06:43:14;;;;;;;4.85;2.45;;;;;;;;;;5008593;28;20438;-87
2022/08/14 06:45:46;;;;;;;3.30;2.22;;;;;;;;;;5036519;28;20067;-86
2022/08/14 06:48:23;;;;;;;7.57;2.90;;;;;;;;;;5043637;28;20049;-89
2022/08/14 06:50:53;;;;;;;6.35;2.97;;;;;;;;;;4989237;28;20049;-90
2022/08/14 06:53:21;;;;;;;6.63;2.60;;;;;;;;;;5012779;28;20068;-90
2022/08/14 06:55:56;;;;;;;3.80;2.50;;;;;;;;;;5006606;28;20112;-90
2022/08/14 06:58:29;;;;;;;4.72;2.53;;;;;;;;;;5033388;28;20053;-85
2022/08/14 07:07:05;;;;;;;6.65;2.50;;;;;;;;;;5024932;28;20058;-88
2022/08/14 07:09:59;;;;;;;4.47;2.60;;;;;;;;;;5019788;28;20053;-88
2022/08/14 07:12:27;;;;;;;5.75;2.60;;;;;;;;;;5035812;28;20056;-86
2022/08/14 07:15:15;;;;;;;6.50;2.30;;;;;;;;;;5003770;28;20046;-86
2022/08/14 07:17:49;;;;;;;8.32;2.60;;;;;;;;;;5046918;28;20469;-90
2022/08/14 07:20:19;;;;;;;5.13;2.83;;;;;;;;;;5019181;28;20064;-91
2022/08/14 07:23:05;;;;;;;10.57;2.90;;;;;;;;;;5019117;28;20055;-90
2022/08/14 07:25:53;;;;;;;4.07;2.58;;;;;;;;;;5019362;28;20397;-90
2022/08/14 07:28:25;;;;;;;5.88;2.47;;;;;;;;;;5012939;28;20057;-90
2022/08/14 07:30:56;;;;;;;5.30;2.72;;;;;;;;;;5012557;28;20413;-90
2022/08/14 07:33:44;;;;;;;7.25;2.88;;;;;;;;;;5013451;28;20132;-91
2022/08/14 07:36:37;;;;;;;6.82;2.55;;;;;;;;;;5013591;28;20042;-90
2022/08/14 07:39:30;;;;;;;4.88;2.67;;;;;;;;;;5023045;28;20052;-85
2022/08/14 07:42:06;;;;;;;5.70;2.55;;;;;;;;;;5033476;28;20058;-85
2022/08/14 07:44:39;;;;;;;6.68;2.70;;;;;;;;;;5028590;28;20128;-85
2022/08/14 07:47:31;;;;;;;4.47;2.50;;;;;;;;;;5017059;28;20037;-86
2022/08/14 07:50:25;;;;;;;6.85;2.40;;;;;;;;;;5033385;28;20057;-85
2022/08/14 07:53:01;;;;;;;5.72;2.70;;;;;;;;;;5013516;28;20045;-85
2022/08/14 07:55:31;;;;;;;4.05;2.90;;;;;;;;;;5049966;28;20396;-85
2022/08/14 07:58:27;;;;;;;5.10;2.90;;;;;;;;;;5022800;28;20393;-91
2022/08/14 08:01:01;;;;;;;6.60;2.72;;;;;;;;;;5032615;28;20478;-90
2022/08/14 08:03:36;;;;;;;5.75;2.40;;;;;;;;;;5015213;28;20054;-90
2022/08/14 08:06:05;;;;;;;3.50;2.30;;;;;;;;;;5015495;28;20056;-85
2022/08/14 08:08:58;;;;;;;3.65;2.55;;;;;;;;;;5039519;28;20041;-90
2022/08/14 08:11:34;;;;;;;4.50;2.72;;;;;;;;;;5022600;28;20057;-90
2022/08/14 08:14:06;;;;;;;4.60;2.85;;;;;;;;;;5022541;28;20511;-90
2022/08/14 08:16:46;;;;;;;8.15;3.20;;;;;;;;;;5039892;28;20051;-86
2022/08/14 08:19:17;;;;;;;5.57;2.72;;;;;;;;;;5033157;28;20057;-85
2022/08/14 08:21:45;;;;;;;4.78;2.92;;;;;;;;;;5052115;28;20524;-85
2022/08/14 08:24:15;;;;;;;5.28;3.10;;;;;;;;;;5036656;28;20563;-86
2022/08/14 08:26:48;;;;;;;5.72;2.72;;;;;;;;;;5014097;28;20049;-86
2022/08/14 08:29:23;;;;;;;5.07;2.90;;;;;;;;;;5018961;28;20045;-85
2022/08/14 08:32:21;;;;;;;5.85;3.03;;;;;;;;;;5039805;28;20072;-85
2022/08/14 08:35:22;;;;;;;7.22;3.10;;;;;;;;;;5019626;28;20046;-85
2022/08/14 08:38:18;;;;;;;3.95;2.70;;;;;;;;;;5055548;28;20049;-91
2022/08/14 08:44:59;;;;;;;5.82;2.67;;;;;;;;;;5043131;28;20071;-93
2022/08/14 08:47:37;;;;;;;5.75;2.80;;;;;;;;;;5040585;28;20426;-87
2022/08/14 08:50:57;;;;;;;7.38;3.08;;;;;;;;;;5042151;28;20113;-88
2022/08/14 08:54:15;;;;;;;8.02;3.00;;;;;;;;;;5039552;28;20045;-87
2022/08/14 08:57:29;;;;;;;5.10;3.15;;;;;;;;;;5037920;28;20060;-90
2022/08/14 09:00:21;;;;;;;4.97;2.90;;;;;;;;;;5019238;28;20052;-87
2022/08/14 09:03:16;;;;;;;4.35;2.65;;;;;;;;;;5020226;28;20090;-88
2022/08/14 09:05:50;;;;;;;5.07;3.17;;;;;;;;;;5019632;28;20048;-88
2022/08/14 09:08:27;;;;;;;6.15;3.08;;;;;;;;;;5021171;28;20047;-86
2022/08/14 09:11:05;;;;;;;5.75;2.88;;;;;;;;;;5052034;28;20068;-88
2022/08/14 09:13:51;;;;;;;8.35;3.00;;;;;;;;;;5032713;28;20494;-87
2022/08/14 09:16:21;;;;;;;8.85;2.95;;;;;;;;;;5049389;28;20045;-87
2022/08/14 09:18:51;;;;;;;6.25;3.17;;;;;;;;;;5036776;28;20531;-87
2022/08/14 09:21:25;;;;;;;13.18;3.20;;;;;;;;;;5032029;28;20041;-87
2022/08/14 09:23:59;;;;;;;6.22;3.13;;;;;;;;;;5036673;28;20041;-87
2022/08/14 09:26:51;;;;;;;5.70;2.83;;;;;;;;;;5020848;28;20055;-87
2022/08/14 09:29:25;;;;;;;5.28;3.10;;;;;;;;;;5034561;28;20046;-88
2022/08/14 09:32:02;;;;;;;8.98;3.45;;;;;;;;;;5029076;28;20041;-87
2022/08/14 09:35:03;;;;;;;5.85;3.03;;;;;;;;;;5034384;28;20413;-87
2022/08/14 09:38:03;;;;;;;6.75;2.70;;;;;;;;;;5040703;28;20052;-87
2022/08/14 09:41:03;;;;;;;7.25;2.90;;;;;;;;;;5034195;28;20053;-87
2022/08/14 09:44:07;;;;;;;5.97;3.25;;;;;;;;;;5035592;28;20041;-87
2022/08/14 09:46:35;;;;;;;8.10;3.42;;;;;;;;;;5050997;28;20574;-88
2022/08/14 09:49:05;;;;;;;5.28;3.42;;;;;;;;;;5017176;28;20057;-93
2022/08/14 09:51:38;;;;;;;6.45;3.70;;;;;;;;;;5017139;28;20395;-92
2022/08/14 09:54:38;;;;;;;7.22;3.63;;;;;;;;;;5033246;28;20123;-92
2022/08/14 09:57:26;;;;;;;7.30;3.47;;;;;;;;;;5025932;28;20056;-87
2022/08/14 10:00:13;;;;;;;4.75;3.30;;;;;;;;;;5036611;28;20485;-87
2022/08/14 10:03:01;;;;;;;10.73;3.65;;;;;;;;;;5050582;28;20222;-88
2022/08/14 10:06:10;;;;;;;5.65;3.42;;;;;;;;;;5050231;28;20044;-86
2022/08/14 10:08:42;;;;;;;8.35;4.15;;;;;;;;;;5029526;28;20054;-90
2022/08/14 10:11:16;;;;;;;6.72;3.45;;;;;;;;;;5040989;28;20045;-93
2022/08/14 10:13:53;;;;;;;8.23;3.78;;;;;;;;;;5020196;28;20080;-91
2022/08/14 10:16:28;;;;;;;7.95;3.97;;;;;;;;;;4995246;28;20920;-87
2022/08/14 10:19:05;;;;;;;6.18;3.92;;;;;;;;;;5053756;28;20041;-91
2022/08/14 10:22:06;;;;;;;4.88;3.53;;;;;;;;;;5043893;28;20511;-92
2022/08/14 10:25:19;;;;;;;4.63;3.20;;;;;;;;;;5027464;28;20389;-91
2022/08/14 10:27:58;;;;;;;8.05;3.38;;;;;;;;;;5016497;28;20992;-87
2022/08/14 10:30:35;;;;;;;10.32;3.53;;;;;;;;;;5030220;28;20088;-87
2022/08/14 10:33:03;;;;;;;7.22;3.20;;;;;;;;;;5033099;28;20045;-86
2022/08/14 10:36:05;;;;;;;5.95;3.80;;;;;;;;;;5029243;28;20945;-87
2022/08/14 10:38:59;;;;;;;5.30;3.55;;;;;;;;;;5050039;28;20048;-86
2022/08/14 10:41:40;;;;;;;11.02;3.67;;;;;;;;;;5042739;28;20130;-85
2022/08/14 10:44:23;;;;;;;7.60;3.95;;;;;;;;;;5050615;28;20049;-86
2022/08/14 10:47:04;;;;;;;5.35;3.83;;;;;;;;;;5054642;28;20064;-90
2022/08/14 10:49:59;;;;;;;7.65;3.42;;;;;;;;;;5029769;28;20130;-91
2022/08/14 10:52:33;;;;;;;5.50;3.58;;;;;;;;;;5045495;28;20065;-91
2022/08/14 10:55:14;;;;;;;8.10;3.40;;;;;;;;;;5053204;28;20096;-94
2022/08/14 10:58:12;;;;;;;5.15;3.42;;;;;;;;;;5019362;28;20084;-94
2022/08/14 11:01:23;;;;;;;5.47;3.38;;;;;;;;;;5032763;28;20053;-92
2022/08/14 11:04:24;;;;;;;6.03;3.60;;;;;;;;;;5018881;28;20046;-96
2022/08/14 11:17:05;;;;;;;5.45;3.22;;;;;;;;;;4954130;28;20142;-92
2022/08/14 11:23:48;;;;;;;11.38;3.60;;;;;;;;;;4961338;28;20078;-93
2022/08/14 11:46:01;;;;;;;9.65;3.40;;;;;;;;;;4898665;29;20045;-96
2022/08/14 11:49:00;;;;;;;7.75;3.83;;;;;;;;;;4811234;29;20419;-96
2022/08/14 12:21:54;;;;;;;6.75;4.05;;;;;;;;;;6180453;22;1275117;-92
2022/08/14 12:24:27;;;;;;;8.85;3.75;;;;;;;;;;6198373;23;20044;-92
2022/08/14 12:27:49;;;;;;;7.47;3.80;;;;;;;;;;6205422;23;20024;-92
2022/08/14 12:30:43;;;;;;;4.93;3.80;;;;;;;;;;6201380;23;20045;-92
2022/08/14 12:33:26;;;;;;;6.47;3.60;;;;;;;;;;6232705;23;20024;-92
2022/08/14 12:36:04;;;;;;;8.18;3.97;;;;;;;;;;6174646;23;20024;-92
2022/08/14 12:38:42;;;;;;;6.55;3.90;;;;;;;;;;6173623;23;20050;-91
2022/08/14 12:41:20;;;;;;;7.22;3.88;;;;;;;;;;6232939;23;20066;-92
2022/08/14 12:44:00;;;;;;;7.10;3.80;;;;;;;;;;6208879;23;20021;-91
2022/08/14 12:47:05;;;;;;;7.05;4.38;;;;;;;;;;6233330;23;20054;-91
2022/08/14 12:49:57;;;;;;;6.88;4.30;;;;;;;;;;6177810;23;20017;-92
2022/08/14 12:52:34;;;;;;;6.57;4.60;;;;;;;;;;6234492;23;20038;-91
2022/08/14 12:55:21;;;;;;;6.88;4.63;;;;;;;;;;6176596;23;20107;-92
2022/08/14 12:58:01;;;;;;;6.70;4.65;;;;;;;;;;6210157;23;20052;-91
2022/08/14 13:01:30;;;;;;;6.43;4.63;;;;;;;;;;6233343;23;20016;-91
2022/08/14 13:04:23;;;;;;;9.05;4.25;;;;;;;;;;6213104;23;20335;-91
2022/08/14 13:07:15;;;;;;;8.20;5.22;;;;;;;;;;6213039;23;20011;-95
2022/08/14 13:09:43;;;;;;;11.45;4.72;;;;;;;;;;6174826;23;20371;-92
2022/08/14 13:12:20;;;;;;;7.57;4.57;;;;;;;;;;6193160;23;20521;-92
2022/08/14 13:15:10;;;;;;;7.70;4.63;;;;;;;;;;6172723;23;20027;-91
2022/08/14 13:17:50;;;;;;;9.15;4.70;;;;;;;;;;6167718;23;20021;-88
2022/08/14 13:20:21;;;;;;;7.85;4.93;;;;;;;;;;6166553;23;20013;-92
2022/08/14 13:22:57;;;;;;;8.02;4.80;;;;;;;;;;6168362;23;20063;-92
2022/08/14 13:28:49;;;;;;;9.07;4.57;;;;;;;;;;6226370;23;20012;-93
2022/08/14 13:31:32;;;;;;;6.00;4.13;;;;;;;;;;6204188;23;20020;-92
2022/08/14 13:34:05;;;;;;;8.90;4.82;;;;;;;;;;6196328;23;20040;-92
2022/08/14 13:36:33;;;;;;;8.07;4.05;;;;;;;;;;6192530;23;20482;-92
2022/08/14 13:39:22;;;;;;;6.95;4.45;;;;;;;;;;6228860;23;20013;-93
2022/08/14 13:41:51;;;;;;;9.02;4.10;;;;;;;;;;6227675;23;20074;-92
2022/08/14 13:44:26;;;;;;;6.93;4.30;;;;;;;;;;6215944;23;20096;-92
2022/08/14 13:46:56;;;;;;;6.07;4.75;;;;;;;;;;6191537;23;20048;-93
2022/08/14 13:49:50;;;;;;;7.45;4.20;;;;;;;;;;6171772;23;20083;-92
2022/08/14 13:52:28;;;;;;;7.65;4.40;;;;;;;;;;6227834;23;20071;-92
2022/08/14 13:55:18;;;;;;;7.90;4.60;;;;;;;;;;6205929;23;20036;-93
2022/08/14 13:57:47;;;;;;;10.65;4.32;;;;;;;;;;6167819;23;20024;-93
2022/08/14 14:00:31;;;;;;;8.63;4.60;;;;;;;;;;6215975;23;20075;-93
2022/08/14 14:03:20;;;;;;;7.70;3.92;;;;;;;;;;6226551;23;20012;-93
2022/08/14 14:05:53;;;;;;;9.25;3.85;;;;;;;;;;6202456;23;20017;-93
2022/08/14 14:08:23;;;;;;;7.75;3.53;;;;;;;;;;6201513;23;20027;-94
2022/08/14 14:11:12;;;;;;;7.15;3.63;;;;;;;;;;6171602;23;20024;-94
2022/08/14 14:14:08;;;;;;;10.52;3.80;;;;;;;;;;6197053;23;20020;-94
2022/08/14 14:17:01;;;;;;;7.55;3.80;;;;;;;;;;6207373;23;20012;-93
2022/08/14 14:19:34;;;;;;;6.65;3.90;;;;;;;;;;6168213;23;20521;-93
2022/08/14 14:22:01;;;;;;;6.80;3.88;;;;;;;;;;6190695;23;20040;-94
2022/08/14 14:24:31;;;;;;;7.10;3.50;;;;;;;;;;6168263;23;20044;-96
2022/08/14 14:27:03;;;;;;;7.18;3.75;;;;;;;;;;6202635;23;20474;-95
2022/08/14 14:30:00;;;;;;;7.63;3.47;;;;;;;;;;6170650;23;20391;-93
2022/08/14 14:32:30;;;;;;;14.43;4.03;;;;;;;;;;6190835;23;20451;-93
2022/08/14 14:35:01;;;;;;;6.75;3.72;;;;;;;;;;6225807;23;20040;-92
2022/08/14 14:37:53;;;;;;;9.15;3.95;;;;;;;;;;6226259;23;20397;-93
2022/08/14 14:40:23;;;;;;;7.53;3.72;;;;;;;;;;6167060;23;20013;-94
2022/08/14 14:43:12;;;;;;;9.50;3.78;;;;;;;;;;6190676;23;20024;-94
2022/08/14 14:45:45;;;;;;;8.18;3.90;;;;;;;;;;6167664;23;20027;-95
2022/08/14 14:48:13;;;;;;;8.10;3.90;;;;;;;;;;6191114;23;20103;-94
2022/08/14 14:51:07;;;;;;;5.63;3.67;;;;;;;;;;6219483;23;20044;-94
2022/08/14 14:53:35;;;;;;;7.57;3.80;;;;;;;;;;6192229;23;20046;-94
2022/08/14 14:56:09;;;;;;;7.22;3.80;;;;;;;;;;6166506;23;20463;-94
2022/08/14 14:59:01;;;;;;;7.10;3.40;;;;;;;;;;6170786;23;20016;-94
2022/08/14 15:01:30;;;;;;;4.88;3.60;;;;;;;;;;6200912;23;20448;-94
2022/08/14 15:04:00;;;;;;;6.00;3.30;;;;;;;;;;6225472;23;20023;-93
2022/08/14 15:06:35;;;;;;;12.07;3.45;;;;;;;;;;6202364;23;20036;-93
2022/08/14 15:09:15;;;;;;;7.10;3.30;;;;;;;;;;6190959;23;20017;-93
2022/08/14 15:12:11;;;;;;;9.55;3.53;;;;;;;;;;6172909;23;20059;-93
2022/08/14 15:15:04;;;;;;;7.95;3.85;;;;;;;;;;6170885;23;20347;-93
2022/08/14 15:17:35;;;;;;;8.77;4.28;;;;;;;;;;6166422;23;20021;-93
2022/08/14 15:20:12;;;;;;;5.78;3.38;;;;;;;;;;6167605;23;20023;-93
2022/08/14 15:23:04;;;;;;;6.43;3.30;;;;;;;;;;6206033;23;20012;-94
2022/08/14 15:25:39;;;;;;;8.45;3.28;;;;;;;;;;6168025;23;20456;-94
2022/08/14 15:28:10;;;;;;;6.18;3.10;;;;;;;;;;6201220;23;20016;-94
2022/08/14 15:31:03;;;;;;;4.32;2.80;;;;;;;;;;6170985;23;20043;-93
2022/08/14 15:36:44;;;;;;;7.10;2.97;;;;;;;;;;6190562;23;20021;-94
2022/08/14 15:39:14;;;;;;;6.78;3.17;;;;;;;;;;6200809;23;20383;-93
2022/08/14 15:41:41;;;;;;;6.20;3.00;;;;;;;;;;6200555;23;20071;-92
2022/08/14 15:44:12;;;;;;;3.95;2.83;;;;;;;;;;6201526;23;20099;-93
2022/08/14 15:46:54;;;;;;;10.30;3.22;;;;;;;;;;6168576;23;20016;-93
2022/08/14 15:49:29;;;;;;;12.60;3.60;;;;;;;;;;6167040;23;20047;-93
2022/08/14 15:52:02;;;;;;;7.60;3.30;;;;;;;;;;6166613;23;20028;-94
2022/08/14 15:54:57;;;;;;;9.30;3.22;;;;;;;;;;6226083;23;20024;-95
2022/08/14 15:57:27;;;;;;;5.47;3.42;;;;;;;;;;6191579;23;20034;-94
2022/08/14 16:03:02;;;;;;;7.70;3.42;;;;;;;;;;6190485;23;20030;-94
2022/08/14 16:05:35;;;;;;;7.72;3.30;;;;;;;;;;6167692;23;20395;-93
2022/08/14 16:08:06;;;;;;;10.32;3.08;;;;;;;;;;6166821;23;20483;-95
2022/08/14 16:11:03;;;;;;;8.02;3.25;;;;;;;;;;6190659;23;20344;-94
2022/08/14 16:13:55;;;;;;;7.40;3.20;;;;;;;;;;6190452;23;20497;-96
2022/08/14 16:16:30;;;;;;;7.25;3.25;;;;;;;;;;6202547;23;20040;-94
2022/08/14 16:19:19;;;;;;;12.45;3.53;;;;;;;;;;6194320;23;20016;-93
2022/08/14 16:21:49;;;;;;;7.70;3.17;;;;;;;;;;6166181;23;20016;-94
2022/08/14 16:24:43;;;;;;;5.18;2.60;;;;;;;;;;6226117;23;20055;-93
2022/08/14 16:27:31;;;;;;;7.13;2.60;;;;;;;;;;6170626;23;20499;-94
2022/08/14 16:30:14;;;;;;;7.10;2.55;;;;;;;;;;6202854;23;20013;-96
2022/08/14 16:32:57;;;;;;;5.55;2.28;;;;;;;;;;6169304;23;20107;-95
2022/08/14 16:35:50;;;;;;;5.38;2.60;;;;;;;;;;6190590;23;20016;-95
2022/08/14 16:38:30;;;;;;;4.75;2.55;;;;;;;;;;6168313;23;20032;-95
2022/08/14 16:41:27;;;;;;;6.00;2.70;;;;;;;;;;6170478;23;20021;-95
2022/08/14 16:44:01;;;;;;;3.67;2.30;;;;;;;;;;6167310;23;20390;-95
2022/08/14 16:46:52;;;;;;;6.53;2.55;;;;;;;;;;6177899;23;20452;-96
2022/08/14 16:49:24;;;;;;;6.07;2.40;;;;;;;;;;6178765;23;20016;-95
2022/08/14 16:52:15;;;;;;;3.58;2.28;;;;;;;;;;6175711;23;20023;-96
2022/08/14 16:55:08;;;;;;;5.55;2.30;;;;;;;;;;6175049;23;20342;-96
2022/08/14 16:57:53;;;;;;;5.93;2.13;;;;;;;;;;6168803;23;20391;-95
2022/08/14 17:00:37;;;;;;;5.07;2.70;;;;;;;;;;6169583;23;20062;-95
2022/08/14 17:03:57;;;;;;;5.55;2.70;;;;;;;;;;6202225;23;20020;-96
2022/08/14 17:06:48;;;;;;;7.25;2.50;;;;;;;;;;6173560;23;20021;-96
2022/08/14 17:09:32;;;;;;;4.65;2.75;;;;;;;;;;6171879;23;20024;-96
2022/08/14 17:12:15;;;;;;;4.85;2.50;;;;;;;;;;6175857;23;20047;-96
2022/08/14 17:15:03;;;;;;;7.65;3.20;;;;;;;;;;6204795;23;20025;-96
2022/08/14 17:17:46;;;;;;;7.45;3.20;;;;;;;;;;6181395;23;20049;-96
2022/08/14 17:20:29;;;;;;;9.57;2.70;;;;;;;;;;6203668;23;20059;-96
2022/08/14 17:23:15;;;;;;;6.40;2.80;;;;;;;;;;6171913;23;20074;-93
2022/08/14 17:25:43;;;;;;;6.68;3.00;;;;;;;;;;6167131;23;20025;-94
2022/08/14 17:28:22;;;;;;;6.32;2.85;;;;;;;;;;6168578;23;20025;-95
2022/08/14 17:31:13;;;;;;;7.00;2.97;;;;;;;;;;6172054;23;20013;-94
2022/08/14 17:33:41;;;;;;;7.47;2.60;;;;;;;;;;6191773;23;20027;-93
2022/08/14 17:36:34;;;;;;;6.90;3.08;;;;;;;;;;6207374;23;20018;-93
2022/08/14 17:39:16;;;;;;;6.80;2.90;;;;;;;;;;6168310;23;20399;-94
2022/08/14 17:41:56;;;;;;;6.60;2.90;;;;;;;;;;6192095;23;20020;-94
2022/08/14 17:44:38;;;;;;;5.28;3.05;;;;;;;;;;6202280;23;20016;-94
2022/08/14 17:47:14;;;;;;;5.13;2.83;;;;;;;;;;6191804;23;20046;-93